This is the latest recevied weather packets stored in our database for station/object N4NVD-13. If no packets are shown the sender has not sent any weather packets the latest 10 day(s).
| Time | Temp. | Humidity | Pressure | Rain* | Wind** | Luminosity | Snow |
|---|---|---|---|---|---|---|---|
| 1778094862 | 25° C | 84% | 1009.8 hPa | 0 mm | - | 697 W/m² | - |
| 1778094554 | 25° C | 84% | 1009.8 hPa | 0 mm | - | 653 W/m² | - |
| 1778094251 | 23.89° C | 86% | 1009.5 hPa | 0 mm | - | 648 W/m² | - |
| 1778093948 | 23.33° C | 86% | 1009.7 hPa | 0 mm | - | 538 W/m² | - |
| 1778093645 | 23.33° C | 86% | 1009.7 hPa | 0 mm | - | 432 W/m² | - |
| 1778093342 | 22.22° C | 88% | 1009.3 hPa | 0 mm | - | 690 W/m² | - |
| 1778093039 | 22.22° C | 89% | 1009.6 hPa | 0 mm | - | 362 W/m² | - |
| 1778092736 | 22.78° C | 86% | 1009.7 hPa | 0 mm | - | 393 W/m² | - |
| 1778092431 | 21.67° C | 91% | 1009.6 hPa | 0 mm | - | 689 W/m² | - |
| 1778092129 | 21.67° C | 89% | 1009.6 hPa | 0 mm | - | 697 W/m² | - |
| 1778091826 | 20.56° C | 90% | 1009.8 hPa | 0 mm | - | 432 W/m² | - |
| 1778091523 | 20.56° C | 90% | 1009.7 hPa | 0 mm | - | 712 W/m² | - |
| 1778091221 | 20.56° C | 89% | 1010.2 hPa | 0 mm | - | 494 W/m² | - |
| 1778090918 | 20° C | 92% | 1010.1 hPa | 0 mm | - | 708 W/m² | - |
| 1778090614 | 20° C | 91% | 1010.3 hPa | 0 mm | - | 548 W/m² | - |
| 1778090310 | 20° C | 91% | 1010.7 hPa | 0 mm | - | 371 W/m² | - |
| 1778090007 | 20° C | 91% | 1010.8 hPa | 0 mm | - | 478 W/m² | - |
| 1778089704 | 19.44° C | 92% | 1010.8 hPa | 0 mm | - | 417 W/m² | - |
| 1778089402 | 19.44° C | 92% | 1011 hPa | 0 mm | - | 314 W/m² | - |
| 1778089099 | 18.89° C | 91% | 1010.8 hPa | 0 mm | - | 530 W/m² | - |
| 1778088796 | 18.89° C | 94% | 1010.5 hPa | 0 mm | - | 634 W/m² | - |
| 1778088493 | 18.89° C | 95% | 1011 hPa | 0 mm | - | 325 W/m² | - |
| 1778088189 | 18.33° C | 96% | 1010.8 hPa | 0 mm | - | 440 W/m² | - |
| 1778087887 | 17.78° C | 97% | 1011 hPa | 0 mm | - | 300 W/m² | - |
| 1778087584 | 17.78° C | 98% | 1011.5 hPa | 0 mm | - | 125 W/m² | - |
* Rain latest hour (hover to see other rain measurements)
** Current wind speed in m/s (hover to see current wind gust speed)